Time;durP1;ratioP1;P1;durP2;ratioP2;P2;SDS_P1;SDS_P2;PMS_P1;PMS_P2;Temp;Humidity;BMP_temperature;BMP_pressure;BME280_temperature;BME280_humidity;BME280_pressure;Samples;Min_cycle;Max_cycle;Signal;HPM_P1;HPM_P2
2022/11/04 00:00:25;;;;;;;0.57;0.30;;;;;;;24.31;42.48;98824.34;5083869;28;20062;-70
2022/11/04 00:02:51;;;;;;;0.45;0.30;;;;;;;24.30;42.36;98820.75;5107175;28;20036;-70
2022/11/04 00:05:16;;;;;;;0.30;0.20;;;;;;;24.31;42.29;98830.72;5089479;28;20052;-58
2022/11/04 00:12:23;;;;;;;0.70;0.20;;;;;;;24.33;42.26;98849.91;5089572;28;20526;-58
2022/11/04 00:13:11;;;;;;;0.68;0.30;;;;;;;24.35;42.25;98851.06;5096436;27;20031;-58
2022/11/04 00:18:20;;;;;;;0.40;0.20;;;;;;;24.37;42.11;98847.88;5130581;28;20414;-56
2022/11/04 00:28:58;;;;;;;0.20;0.15;;;;;;;24.35;41.93;98853.88;5122552;28;20112;-69
2022/11/04 00:34:07;;;;;;;0.20;0.20;;;;;;;24.36;41.66;98852.69;5130495;28;20096;-69
2022/11/04 00:36:33;;;;;;;0.20;0.20;;;;;;;24.38;41.92;98852.25;5130046;28;20412;-69
2022/11/04 00:38:59;;;;;;;0.22;0.20;;;;;;;24.37;41.70;98842.28;5130055;28;20122;-57
2022/11/04 00:41:27;;;;;;;0.30;0.20;;;;;;;24.36;41.90;98841.50;5129909;28;20046;-58
2022/11/04 00:44:03;;;;;;;0.13;0.13;;;;;;;24.39;41.53;98837.88;5129931;28;20412;-70
2022/11/04 00:46:31;;;;;;;0.17;0.15;;;;;;;24.40;41.65;98824.69;5130078;28;20090;-69
2022/11/04 00:48:57;;;;;;;0.35;0.15;;;;;;;24.39;41.60;98820.31;5129663;28;20133;-57
2022/11/04 00:51:22;;;;;;;0.15;0.13;;;;;;;24.38;41.55;98825.09;5129803;28;20126;-57
2022/11/04 00:53:48;;;;;;;0.45;0.20;;;;;;;24.41;41.63;98817.88;5129287;28;20039;-58
2022/11/04 00:56:14;;;;;;;0.38;0.25;;;;;;;24.40;41.51;98813.50;5129614;28;20074;-58
2022/11/04 00:58:39;;;;;;;0.20;0.20;;;;;;;24.40;41.42;98819.09;5129788;28;20454;-70
2022/11/04 01:01:16;;;;;;;0.20;0.20;;;;;;;24.41;41.43;98821.47;5129412;28;20043;-59
2022/11/04 01:03:42;;;;;;;0.32;0.30;;;;;;;24.44;41.29;98819.88;5129917;28;20035;-58
2022/11/04 01:06:08;;;;;;;0.20;0.20;;;;;;;24.42;41.24;98813.88;5129648;28;20035;-59
2022/11/04 01:08:33;;;;;;;0.10;0.10;;;;;;;24.43;41.27;98807.88;5111064;28;20039;-70
2022/11/04 01:11:07;;;;;;;0.30;0.20;;;;;;;24.41;41.35;98804.69;5129458;28;20571;-70
2022/11/04 01:13:33;;;;;;;0.10;0.10;;;;;;;24.41;41.20;98798.31;5129314;28;20046;-59
2022/11/04 01:16:00;;;;;;;0.10;0.10;;;;;;;24.42;41.20;98797.09;5128954;28;20039;-58
2022/11/04 01:18:26;;;;;;;0.28;0.17;;;;;;;24.42;40.94;98799.91;5129290;28;20040;-56
2022/11/04 01:20:51;;;;;;;0.85;0.13;;;;;;;24.42;40.97;98795.09;5129748;28;20036;-70
2022/11/04 01:23:17;;;;;;;0.20;0.20;;;;;;;24.42;41.32;98794.31;5128888;28;20043;-68
2022/11/04 01:25:42;;;;;;;0.15;0.10;;;;;;;24.44;40.91;98805.88;5122084;28;20035;-57
2022/11/04 01:28:08;;;;;;;0.20;0.20;;;;;;;24.43;41.02;98801.47;5128857;28;20039;-69
2022/11/04 01:30:33;;;;;;;0.10;0.10;;;;;;;24.41;40.92;98803.91;5108560;28;20043;-59
2022/11/04 01:32:58;;;;;;;0.10;0.10;;;;;;;24.45;40.76;98809.47;5124720;28;20047;-71
2022/11/04 01:35:25;;;;;;;0.25;0.17;;;;;;;24.43;40.78;98796.72;5129207;28;20122;-58
2022/11/04 01:37:50;;;;;;;0.28;0.20;;;;;;;24.43;40.65;98795.88;5129027;27;20074;-70
2022/11/04 01:40:16;;;;;;;0.20;0.20;;;;;;;24.43;40.81;98785.53;5132260;28;20063;-70
2022/11/04 01:42:41;;;;;;;0.20;0.20;;;;;;;24.41;40.59;98782.34;5118738;28;20070;-56
2022/11/04 01:45:15;;;;;;;0.20;0.10;;;;;;;24.41;40.60;98776.75;5126453;28;20066;-68
2022/11/04 01:47:43;;;;;;;0.17;0.15;;;;;;;24.44;40.68;98783.53;5128684;28;20078;-70
2022/11/04 01:50:14;;;;;;;0.00;0.00;;;;;;;24.43;40.77;98779.94;5131300;28;20058;-58
2022/11/04 01:52:53;;;;;;;0.20;0.20;;;;;;;24.42;40.74;98780.31;5132760;28;20032;-57
2022/11/04 01:55:30;;;;;;;0.13;0.13;;;;;;;24.43;40.43;98779.13;5132654;28;20564;-57
2022/11/04 01:58:01;;;;;;;0.15;0.10;;;;;;;24.44;40.42;98769.53;5132448;28;20062;-69
2022/11/04 02:00:27;;;;;;;0.10;0.10;;;;;;;24.45;40.48;98779.50;5132513;28;20051;-69
2022/11/04 02:02:52;;;;;;;0.10;0.10;;;;;;;24.46;40.35;98771.91;5132239;28;20031;-57
2022/11/04 02:05:18;;;;;;;0.17;0.10;;;;;;;24.46;40.42;98774.72;5132262;28;20039;-69
2022/11/04 02:07:49;;;;;;;0.10;0.10;;;;;;;24.41;40.14;98762.75;5132319;28;20050;-71
2022/11/04 02:10:15;;;;;;;0.10;0.10;;;;;;;24.47;40.32;98760.31;5132278;28;20067;-58
2022/11/04 02:12:49;;;;;;;0.20;0.10;;;;;;;24.46;40.18;98746.75;5132218;28;20134;-71
2022/11/04 02:15:26;;;;;;;0.20;0.20;;;;;;;24.45;40.15;98745.19;5131970;28;20407;-71
2022/11/04 02:18:09;;;;;;;0.10;0.10;;;;;;;24.46;40.01;98738.38;5132148;28;20094;-71
2022/11/04 02:20:57;;;;;;;0.10;0.10;;;;;;;24.47;40.01;98740.75;5131455;28;20104;-70
2022/11/04 02:23:53;;;;;;;0.10;0.10;;;;;;;24.46;40.07;98738.38;5121323;28;20051;-58
2022/11/04 02:26:21;;;;;;;0.10;0.10;;;;;;;24.48;40.15;98735.94;5131726;28;20043;-71
2022/11/04 02:29:28;;;;;;;0.10;0.10;;;;;;;24.46;40.04;98739.16;5131720;28;20034;-71
2022/11/04 02:32:09;;;;;;;0.22;0.10;;;;;;;24.47;39.90;98739.97;5048087;28;20067;-71
2022/11/04 02:34:48;;;;;;;0.10;0.10;;;;;;;24.44;40.02;98733.22;5047185;28;20053;-59
2022/11/04 02:37:31;;;;;;;0.00;0.00;;;;;;;24.47;39.93;98720.38;5048211;28;20052;-71
2022/11/04 02:40:23;;;;;;;0.35;0.22;;;;;;;24.47;39.66;98729.56;5046896;28;20053;-58
2022/11/04 02:43:19;;;;;;;0.10;0.10;;;;;;;24.47;39.84;98729.56;5040343;28;20037;-58
2022/11/04 02:45:47;;;;;;;0.13;0.10;;;;;;;24.47;40.07;98723.97;5047859;28;20056;-58
2022/11/04 02:48:38;;;;;;;0.20;0.10;;;;;;;24.47;39.76;98725.97;5044033;28;20102;-58
2022/11/04 02:51:09;;;;;;;0.08;0.08;;;;;;;24.45;39.74;98720.03;5038110;28;20057;-70
2022/11/04 02:53:47;;;;;;;0.10;0.10;;;;;;;24.46;39.85;98704.81;5022591;28;20068;-58
2022/11/04 02:56:15;;;;;;;0.55;0.10;;;;;;;24.47;39.75;98700.81;5041812;28;20041;-58
2022/11/04 02:58:47;;;;;;;0.28;0.20;;;;;;;24.48;39.67;98699.59;5048194;28;20052;-72
2022/11/04 03:01:17;;;;;;;0.10;0.10;;;;;;;24.47;39.74;98696.03;5046656;28;20071;-57
2022/11/04 03:03:53;;;;;;;0.30;0.20;;;;;;;24.45;39.71;98695.66;5111493;28;20046;-69
2022/11/04 03:06:23;;;;;;;0.10;0.10;;;;;;;24.47;39.66;98700.81;5131474;28;20051;-70
2022/11/04 03:08:53;;;;;;;0.20;0.10;;;;;;;24.47;39.65;98693.22;5110347;28;20076;-57
2022/11/04 03:11:22;;;;;;;0.10;0.10;;;;;;;24.49;39.59;98695.59;5131457;28;20138;-57
2022/11/04 03:14:03;;;;;;;0.10;0.10;;;;;;;24.48;39.90;98692.00;5130455;28;20164;-70
2022/11/04 03:16:38;;;;;;;0.10;0.10;;;;;;;24.48;39.65;98700.41;5123516;28;20035;-58
2022/11/04 03:19:20;;;;;;;0.10;0.10;;;;;;;24.42;39.84;98683.28;5124610;28;20055;-58
2022/11/04 03:21:56;;;;;;;0.30;0.20;;;;;;;24.45;39.61;98681.69;5122192;28;20039;-70
2022/11/04 03:24:22;;;;;;;0.10;0.10;;;;;;;24.48;39.45;98680.81;5127198;28;20031;-58
2022/11/04 03:27:01;;;;;;;0.00;0.00;;;;;;;24.49;39.51;98685.19;5115950;28;20547;-71
2022/11/04 03:29:38;;;;;;;0.45;0.17;;;;;;;24.49;39.59;98678.81;5126372;28;20044;-58
2022/11/04 03:32:22;;;;;;;0.10;0.10;;;;;;;24.48;39.49;98669.66;5127188;28;20039;-58
2022/11/04 03:34:48;;;;;;;0.10;0.10;;;;;;;24.49;39.47;98667.63;5124785;28;20031;-58
2022/11/04 03:37:13;;;;;;;0.17;0.10;;;;;;;24.49;39.33;98668.44;5121644;28;20046;-70
2022/11/04 03:39:39;;;;;;;0.00;0.00;;;;;;;24.46;39.20;98666.47;5130504;28;20047;-70
2022/11/04 03:42:19;;;;;;;0.10;0.10;;;;;;;24.49;39.35;98662.06;5131026;28;20043;-70
2022/11/04 03:44:50;;;;;;;0.10;0.10;;;;;;;24.49;39.30;98662.84;5130824;28;20054;-70
2022/11/04 03:47:19;;;;;;;0.10;0.10;;;;;;;24.48;39.55;98655.66;5110613;28;20039;-57
2022/11/04 03:49:47;;;;;;;0.10;0.10;;;;;;;24.47;39.30;98645.69;5123003;28;20114;-70
2022/11/04 03:52:13;;;;;;;0.17;0.17;;;;;;;24.48;39.31;98641.69;5130880;28;20114;-69
2022/11/04 03:54:39;;;;;;;0.10;0.10;;;;;;;24.49;39.31;98636.88;5130469;28;20039;-58
2022/11/04 03:57:42;;;;;;;0.10;0.10;;;;;;;24.49;39.43;98632.09;5130925;28;20054;-58
2022/11/04 04:00:17;;;;;;;0.30;0.10;;;;;;;24.49;39.51;98639.69;5130338;27;20491;-58
2022/11/04 04:02:48;;;;;;;0.10;0.10;;;;;;;24.48;39.54;98636.09;5130164;28;20094;-57
2022/11/04 04:05:36;;;;;;;0.20;0.10;;;;;;;24.42;39.38;98619.00;5129706;28;20150;-57
2022/11/04 04:08:28;;;;;;;0.10;0.10;;;;;;;24.46;39.47;98638.53;5046519;28;20452;-70
2022/11/04 04:11:00;;;;;;;0.10;0.10;;;;;;;24.50;39.38;98646.84;5043447;28;20045;-57
2022/11/04 04:13:44;;;;;;;0.20;0.13;;;;;;;24.48;39.45;98638.88;5028929;28;20049;-70
2022/11/04 04:16:18;;;;;;;0.10;0.10;;;;;;;24.47;39.39;98633.72;5033340;28;20243;-70
2022/11/04 04:18:52;;;;;;;0.20;0.10;;;;;;;24.48;39.34;98626.91;5058171;28;20085;-70
2022/11/04 04:21:21;;;;;;;0.28;0.10;;;;;;;24.48;39.46;98624.91;5046876;28;20052;-59
2022/11/04 04:29:22;;;;;;;0.40;0.20;;;;;;;24.49;39.64;98637.69;5035771;28;20060;-70
2022/11/04 04:31:56;;;;;;;0.20;0.20;;;;;;;24.47;39.53;98628.94;5046871;28;20139;-58
2022/11/04 04:34:25;;;;;;;0.10;0.10;;;;;;;24.48;39.59;98635.31;5044873;28;20053;-70
2022/11/04 04:36:53;;;;;;;0.10;0.10;;;;;;;24.47;39.19;98628.94;5044453;28;20505;-68
2022/11/04 04:45:04;;;;;;;0.10;0.10;;;;;;;24.47;39.14;98628.94;5073470;28;20068;-68
2022/11/04 04:47:43;;;;;;;0.10;0.10;;;;;;;24.47;39.20;98623.34;5119795;28;20100;-57
2022/11/04 04:50:12;;;;;;;0.57;0.20;;;;;;;24.44;39.20;98618.59;5128056;28;20038;-70
2022/11/04 04:52:41;;;;;;;0.10;0.10;;;;;;;24.47;39.24;98640.09;5130169;28;20057;-68
2022/11/04 04:55:08;;;;;;;0.10;0.10;;;;;;;24.46;39.03;98627.34;5111703;28;20126;-56
2022/11/04 04:57:33;;;;;;;0.10;0.10;;;;;;;24.47;39.23;98628.94;5129930;28;20040;-57
2022/11/04 04:59:59;;;;;;;0.10;0.10;;;;;;;24.48;38.92;98624.13;5129917;28;20044;-56
2022/11/04 05:02:24;;;;;;;0.10;0.10;;;;;;;24.48;39.31;98622.13;5129917;28;20072;-57
2022/11/04 05:04:50;;;;;;;0.10;0.10;;;;;;;24.47;38.97;98611.38;5129552;28;20430;-69
2022/11/04 05:07:15;;;;;;;0.13;0.10;;;;;;;24.47;39.17;98606.56;5129285;28;20232;-57
2022/11/04 05:09:41;;;;;;;0.50;0.20;;;;;;;24.46;38.71;98604.19;5129730;28;20043;-56
2022/11/04 05:12:06;;;;;;;0.20;0.20;;;;;;;24.47;38.98;98603.75;5129202;27;20134;-57
2022/11/04 05:14:32;;;;;;;0.20;0.10;;;;;;;24.47;38.89;98594.59;5132539;28;20072;-56
2022/11/04 05:16:57;;;;;;;0.00;0.00;;;;;;;24.47;38.95;98595.38;5133166;28;20080;-56
2022/11/04 05:19:23;;;;;;;0.10;0.10;;;;;;;24.45;38.72;98592.22;5131077;28;20054;-69
2022/11/04 05:21:48;;;;;;;0.15;0.10;;;;;;;24.45;38.88;98595.00;5132642;28;20039;-57
2022/11/04 05:24:14;;;;;;;0.10;0.10;;;;;;;24.47;38.90;98603.75;5131626;28;20042;-55
2022/11/04 05:26:39;;;;;;;0.32;0.20;;;;;;;24.47;38.76;98602.97;5128051;28;20039;-69
2022/11/04 05:29:04;;;;;;;0.10;0.10;;;;;;;24.47;38.81;98594.59;5133149;28;20043;-57
2022/11/04 05:31:30;;;;;;;0.10;0.10;;;;;;;24.46;38.88;98585.41;5133010;28;20510;-57
2022/11/04 05:33:57;;;;;;;1.27;0.10;;;;;;;24.46;39.00;98582.63;5132801;28;20043;-70
2022/11/04 05:36:23;;;;;;;0.55;0.20;;;;;;;24.47;38.86;98586.19;5132944;28;20407;-70
2022/11/04 05:38:50;;;;;;;0.10;0.10;;;;;;;24.45;38.88;98586.63;5118446;28;20043;-57
2022/11/04 05:41:24;;;;;;;0.10;0.10;;;;;;;24.46;38.86;98588.22;5133001;28;20075;-70
2022/11/04 05:44:00;;;;;;;0.17;0.15;;;;;;;24.47;38.77;98583.41;5118892;28;20046;-58
2022/11/04 05:46:27;;;;;;;0.10;0.10;;;;;;;24.45;38.66;98592.22;5132742;28;20043;-69
2022/11/04 05:48:53;;;;;;;0.10;0.10;;;;;;;24.45;38.85;98585.84;5126573;28;20044;-58
2022/11/04 05:51:22;;;;;;;0.10;0.10;;;;;;;24.46;38.84;98591.00;5130961;28;20041;-70
2022/11/04 05:53:47;;;;;;;0.17;0.17;;;;;;;24.44;38.43;98590.63;5128941;28;20499;-58
2022/11/04 05:56:13;;;;;;;0.30;0.20;;;;;;;24.45;38.55;98595.00;5121224;28;20503;-57
2022/11/04 05:58:38;;;;;;;0.17;0.10;;;;;;;24.46;38.59;98591.00;5120101;28;20136;-58
2022/11/04 06:01:25;;;;;;;0.25;0.20;;;;;;;24.46;38.61;98585.41;5127390;28;20043;-70
2022/11/04 06:03:52;;;;;;;0.10;0.10;;;;;;;24.45;38.50;98574.66;5129544;28;20047;-59
2022/11/04 06:06:17;;;;;;;0.10;0.10;;;;;;;24.45;38.68;98558.69;5131603;28;20054;-69
2022/11/04 06:08:43;;;;;;;0.10;0.10;;;;;;;24.50;38.40;98565.78;5112811;28;20044;-57
2022/11/04 06:11:08;;;;;;;0.10;0.10;;;;;;;24.50;38.50;98572.16;5130265;28;20035;-57
2022/11/04 06:13:34;;;;;;;0.10;0.10;;;;;;;24.51;38.47;98568.19;5124396;28;20056;-69
2022/11/04 06:15:59;;;;;;;0.10;0.10;;;;;;;24.53;38.29;98570.53;5132330;28;20059;-57
2022/11/04 06:18:24;;;;;;;0.10;0.10;;;;;;;24.54;38.29;98567.31;5132083;28;20530;-57
2022/11/04 06:21:09;;;;;;;0.15;0.10;;;;;;;24.55;38.28;98570.91;5132207;28;20061;-69
2022/11/04 06:23:34;;;;;;;1.10;0.20;;;;;;;24.55;38.37;98563.31;5131454;27;20061;-58
2022/11/04 06:25:59;;;;;;;0.10;0.10;;;;;;;24.57;38.42;98566.47;5125713;28;20403;-70
2022/11/04 06:28:25;;;;;;;0.10;0.10;;;;;;;24.57;38.23;98560.88;5128954;28;20524;-57
2022/11/04 06:30:50;;;;;;;0.10;0.10;;;;;;;24.52;38.37;98544.59;5128405;28;20429;-57
2022/11/04 06:33:15;;;;;;;0.73;0.20;;;;;;;24.58;38.22;98548.50;5132133;28;20573;-70
2022/11/04 06:35:41;;;;;;;0.40;0.30;;;;;;;24.60;38.09;98539.69;5131832;28;20039;-57
2022/11/04 06:38:06;;;;;;;0.20;0.20;;;;;;;24.58;38.18;98537.31;5131724;28;20400;-57
2022/11/04 06:40:32;;;;;;;0.50;0.30;;;;;;;24.60;38.29;98520.91;5131657;28;20126;-57
2022/11/04 06:42:57;;;;;;;0.00;0.00;;;;;;;24.61;38.02;98533.66;5131896;28;20040;-57
2022/11/04 06:45:23;;;;;;;0.20;0.20;;;;;;;24.60;38.00;98529.28;5131595;28;20039;-69
2022/11/04 06:47:48;;;;;;;0.30;0.20;;;;;;;24.61;38.01;98536.47;5126998;28;20035;-70
2022/11/04 06:50:13;;;;;;;0.20;0.20;;;;;;;24.62;38.06;98540.06;5129923;28;20790;-69
2022/11/04 06:52:39;;;;;;;0.40;0.20;;;;;;;24.65;38.05;98540.00;5121188;28;20036;-57
2022/11/04 06:55:06;;;;;;;0.10;0.10;;;;;;;24.64;38.16;98538.41;5131030;28;20054;-57
2022/11/04 06:57:31;;;;;;;0.80;0.20;;;;;;;24.64;38.13;98535.63;5113166;28;20133;-69
2022/11/04 06:59:56;;;;;;;4.50;0.35;;;;;;;24.64;38.48;98535.63;5131399;28;20126;-67
2022/11/04 07:02:22;;;;;;;2.22;0.30;;;;;;;24.65;38.36;98540.00;5116083;28;20430;-57
2022/11/04 07:04:47;;;;;;;1.20;0.30;;;;;;;24.66;38.48;98538.81;5131023;28;20047;-58
2022/11/04 07:07:13;;;;;;;2.13;0.30;;;;;;;24.67;38.20;98537.59;5131390;28;20047;-67
2022/11/04 07:09:38;;;;;;;4.63;0.35;;;;;;;24.66;38.65;98536.00;5126102;28;20073;-67
2022/11/04 07:12:04;;;;;;;2.88;0.30;;;;;;;24.64;38.37;98530.03;5129973;28;20074;-69
2022/11/04 07:14:30;;;;;;;4.03;0.30;;;;;;;24.67;38.26;98526.41;5131073;28;20459;-68
2022/11/04 07:16:55;;;;;;;0.75;0.22;;;;;;;24.68;38.15;98524.38;5130723;28;20497;-58
2022/11/04 07:19:21;;;;;;;3.30;0.32;;;;;;;24.68;38.36;98522.38;5131166;28;20472;-58
2022/11/04 07:21:46;;;;;;;2.50;0.30;;;;;;;24.68;38.49;98525.19;5131275;28;20573;-56
2022/11/04 07:24:11;;;;;;;2.75;0.40;;;;;;;24.68;38.31;98530.78;5129158;28;20047;-68
2022/11/04 07:26:37;;;;;;;2.30;0.40;;;;;;;24.70;38.01;98519.94;5131096;28;20054;-66
2022/11/04 07:29:05;;;;;;;1.23;0.40;;;;;;;24.67;38.29;98508.81;5131233;28;20380;-57
2022/11/04 07:31:30;;;;;;;0.57;0.28;;;;;;;24.66;37.96;98510.84;5121579;28;20093;-67
2022/11/04 07:33:56;;;;;;;1.52;0.30;;;;;;;24.64;38.05;98502.06;5131005;28;20047;-67
2022/11/04 07:36:21;;;;;;;2.33;0.32;;;;;;;24.67;38.02;98504.03;5125814;27;20046;-56
2022/11/04 07:38:47;;;;;;;0.50;0.22;;;;;;;24.69;38.28;98498.00;5128402;28;20039;-56
2022/11/04 07:41:13;;;;;;;1.35;0.30;;;;;;;24.66;38.29;98491.25;5122367;28;20156;-67
2022/11/04 07:43:39;;;;;;;0.20;0.20;;;;;;;24.66;38.17;98496.06;5129468;28;20073;-57
2022/11/04 07:46:07;;;;;;;0.82;0.30;;;;;;;24.60;38.12;98481.75;5130246;28;20063;-66
2022/11/04 07:48:33;;;;;;;0.40;0.20;;;;;;;24.62;38.26;98489.72;5116138;28;20073;-57
2022/11/04 07:50:59;;;;;;;1.75;0.30;;;;;;;24.61;38.14;98491.72;5130919;28;20123;-67
2022/11/04 07:53:27;;;;;;;0.43;0.22;;;;;;;24.60;37.99;98487.34;5130567;28;20053;-57
2022/11/04 07:55:53;;;;;;;1.80;0.35;;;;;;;24.60;38.02;98492.16;5117369;28;20039;-68
2022/11/04 07:58:19;;;;;;;1.63;0.77;;;;;;;24.50;36.79;98481.91;5121711;28;20152;-56
2022/11/04 08:00:44;;;;;;;5.35;0.88;;;;;;;24.20;35.61;98491.09;5130069;28;20422;-57
2022/11/04 08:03:10;;;;;;;2.85;0.90;;;;;;;23.86;35.74;98478.78;5129293;28;20046;-71
2022/11/04 08:05:35;;;;;;;2.30;0.88;;;;;;;23.57;36.03;98471.91;5126222;28;20043;-71
2022/11/04 08:08:01;;;;;;;3.42;1.13;;;;;;;23.38;37.92;98464.97;5103822;28;20372;-58
2022/11/04 08:10:27;;;;;;;3.67;0.70;;;;;;;23.53;38.40;98466.38;5119603;28;20071;-57
2022/11/04 08:12:53;;;;;;;3.38;0.73;;;;;;;23.69;38.68;98462.25;5114588;28;20045;-58
2022/11/04 08:15:18;;;;;;;3.65;0.73;;;;;;;23.81;38.59;98464.50;5128970;28;20039;-57
2022/11/04 08:17:43;;;;;;;5.43;0.70;;;;;;;23.94;38.57;98471.09;5126100;28;20131;-72
2022/11/04 08:20:09;;;;;;;4.32;0.60;;;;;;;24.04;38.24;98456.19;5123228;28;20050;-68
2022/11/04 08:22:34;;;;;;;5.85;1.67;;;;;;;24.12;38.14;98451.28;5128077;28;20042;-69
2022/11/04 08:25:00;;;;;;;5.22;1.15;;;;;;;24.20;37.92;98441.59;5127091;28;20824;-57
2022/11/04 08:27:26;;;;;;;2.92;1.00;;;;;;;24.27;38.09;98457.47;5123196;28;20031;-71
2022/11/04 08:29:52;;;;;;;2.53;0.90;;;;;;;24.27;38.07;98446.28;5119381;28;20518;-74
2022/11/04 08:32:17;;;;;;;2.25;1.00;;;;;;;24.33;37.82;98453.81;5113676;27;20047;-68
2022/11/04 08:34:44;;;;;;;3.92;1.83;;;;;;;24.33;38.07;98445.44;5113896;28;20589;-72
2022/11/04 08:37:14;;;;;;;3.88;1.65;;;;;;;24.38;38.04;98449.75;5116855;28;20040;-68
2022/11/04 08:39:40;;;;;;;4.20;1.35;;;;;;;24.35;38.03;98437.41;5117151;28;20050;-67
2022/11/04 08:42:05;;;;;;;2.45;1.20;;;;;;;24.40;37.99;98434.16;5117755;28;20976;-68
2022/11/04 08:44:32;;;;;;;2.88;1.40;;;;;;;24.47;37.84;98438.03;5117740;28;20542;-70
2022/11/04 08:47:01;;;;;;;3.17;1.23;;;;;;;24.48;38.20;98417.25;5118798;27;20055;-66
2022/11/04 08:49:27;;;;;;;5.10;1.38;;;;;;;24.53;37.87;98425.97;5122901;28;20074;-59
2022/11/04 08:51:58;;;;;;;3.40;1.45;;;;;;;24.57;37.53;98426.69;5121005;28;20043;-60
2022/11/04 08:54:24;;;;;;;3.60;1.30;;;;;;;24.58;37.70;98421.91;5122341;28;20105;-69
2022/11/04 08:56:49;;;;;;;3.45;1.10;;;;;;;24.62;38.10;98405.84;5118269;28;20292;-58
2022/11/04 08:59:16;;;;;;;6.45;1.20;;;;;;;24.66;37.83;98393.38;5121997;28;20035;-58
2022/11/04 09:01:42;;;;;;;3.65;1.35;;;;;;;24.65;37.83;98397.41;5120989;28;20024;-67
2022/11/04 09:04:12;;;;;;;2.00;1.08;;;;;;;24.65;37.91;98396.63;5120323;28;20187;-70
2022/11/04 09:06:44;;;;;;;2.25;1.15;;;;;;;24.68;37.69;98384.56;5119284;28;20419;-68
2022/11/04 09:09:14;;;;;;;2.58;1.27;;;;;;;24.70;37.73;98382.91;5120135;28;20046;-74
2022/11/04 09:11:41;;;;;;;3.15;1.17;;;;;;;24.76;38.03;98374.03;5117206;28;20035;-61
2022/11/04 09:14:07;;;;;;;4.20;1.10;;;;;;;24.79;37.88;98375.97;5120554;28;20184;-72
2022/11/04 09:16:34;;;;;;;2.28;1.10;;;;;;;24.80;37.92;98381.16;5121432;28;20051;-61
2022/11/04 09:19:00;;;;;;;2.75;1.13;;;;;;;24.79;38.06;98379.59;5120301;28;20599;-70
2022/11/04 09:21:27;;;;;;;1.50;0.80;;;;;;;24.81;38.06;98379.94;5121444;28;20375;-59
2022/11/04 09:23:53;;;;;;;4.07;0.90;;;;;;;24.81;37.87;98365.19;5117900;28;20086;-66
2022/11/04 09:26:21;;;;;;;2.10;0.90;;;;;;;24.82;38.17;98369.53;5115666;28;20143;-69
2022/11/04 09:28:47;;;;;;;1.88;1.00;;;;;;;24.78;37.91;98355.63;5119716;28;20031;-59
2022/11/04 09:31:15;;;;;;;3.20;1.05;;;;;;;24.82;37.97;98361.94;5120924;28;20073;-68
2022/11/04 09:33:46;;;;;;;2.30;1.02;;;;;;;24.84;37.80;98367.09;5120143;28;20122;-58
2022/11/04 09:36:13;;;;;;;3.13;1.02;;;;;;;24.83;38.03;98351.53;5117309;28;20137;-59
2022/11/04 09:38:40;;;;;;;2.72;1.20;;;;;;;24.85;37.84;98351.91;5118211;28;20076;-58
2022/11/04 09:41:29;;;;;;;4.00;1.52;;;;;;;24.83;37.80;98338.34;5120231;28;20039;-59
2022/11/04 09:44:16;;;;;;;14.23;5.13;;;;;;;24.74;36.86;98342.94;5120708;28;20063;-58
2022/11/04 09:46:43;;;;;;;16.38;6.00;;;;;;;24.51;36.92;98344.53;5119382;28;20109;-66
2022/11/04 09:49:11;;;;;;;4.07;1.23;;;;;;;24.38;37.85;98341.53;5119912;28;20520;-71
2022/11/04 09:51:40;;;;;;;3.80;1.10;;;;;;;24.46;37.92;98342.22;5120015;28;20085;-70
2022/11/04 09:54:20;;;;;;;2.67;1.02;;;;;;;24.54;38.06;98340.88;5114589;28;20085;-62
2022/11/04 09:56:50;;;;;;;4.90;1.10;;;;;;;24.58;37.76;98333.22;5119473;28;20135;-60
2022/11/04 09:59:24;;;;;;;1.77;0.85;;;;;;;24.62;38.01;98342.31;5118527;27;20065;-58
2022/11/04 10:02:16;;;;;;;1.98;0.90;;;;;;;24.64;37.97;98342.69;5117491;28;20043;-68
2022/11/04 10:04:59;;;;;;;1.58;0.80;;;;;;;24.69;37.80;98356.19;5101561;28;20475;-58
2022/11/04 10:07:44;;;;;;;3.17;0.82;;;;;;;24.73;37.54;98349.75;5116098;28;20436;-58
2022/11/04 10:10:49;;;;;;;1.15;0.68;;;;;;;24.74;37.50;98342.94;5119032;28;20039;-69
2022/11/04 10:13:30;;;;;;;2.25;0.80;;;;;;;24.77;37.72;98350.44;5039708;28;20049;-70
2022/11/04 10:16:02;;;;;;;1.77;0.80;;;;;;;24.78;37.49;98364.00;5038050;28;20136;-59
2022/11/04 10:18:44;;;;;;;2.22;0.90;;;;;;;24.79;37.90;98359.19;5037854;28;20052;-66
2022/11/04 10:21:29;;;;;;;1.70;0.77;;;;;;;24.78;37.93;98361.22;5044253;28;20056;-66
2022/11/04 10:24:32;;;;;;;1.42;0.80;;;;;;;24.82;37.77;98358.34;5044558;28;20433;-66
2022/11/04 10:27:24;;;;;;;3.92;0.80;;;;;;;24.82;37.78;98364.75;5041452;28;20044;-66
2022/11/04 10:29:57;;;;;;;2.17;0.98;;;;;;;24.82;38.17;98353.56;5043418;28;20084;-58
2022/11/04 10:32:39;;;;;;;1.92;0.70;;;;;;;24.79;38.23;98343.22;5041387;28;20133;-66
2022/11/04 10:35:24;;;;;;;1.20;0.73;;;;;;;24.84;38.01;98353.13;5044623;28;20164;-66
2022/11/04 10:37:52;;;;;;;1.08;0.55;;;;;;;24.85;38.19;98357.50;5042451;28;20343;-57
2022/11/04 10:40:27;;;;;;;4.55;0.93;;;;;;;24.85;37.69;98358.28;5042339;28;20064;-65
2022/11/04 10:42:57;;;;;;;5.80;0.70;;;;;;;24.84;38.01;98355.91;5043987;28;20110;-65
2022/11/04 10:45:47;;;;;;;2.17;0.93;;;;;;;24.87;37.79;98346.69;5039231;28;20060;-65
2022/11/04 10:48:29;;;;;;;1.02;0.60;;;;;;;24.88;37.70;98343.47;5108129;28;20039;-66
2022/11/04 10:50:57;;;;;;;1.33;0.77;;;;;;;24.90;37.74;98343.03;5120009;28;20061;-57
2022/11/04 10:53:27;;;;;;;1.15;0.75;;;;;;;24.88;37.69;98329.47;5118826;28;20051;-68
2022/11/04 10:55:53;;;;;;;1.67;0.70;;;;;;;24.89;38.03;98330.25;5118939;28;20093;-57
2022/11/04 10:58:31;;;;;;;2.58;0.52;;;;;;;24.87;37.86;98322.31;5116081;28;20043;-58
2022/11/04 11:00:58;;;;;;;1.25;0.68;;;;;;;24.89;37.90;98319.06;5118591;28;20058;-58
2022/11/04 11:03:32;;;;;;;1.40;0.70;;;;;;;24.89;37.81;98322.66;5117944;28;20423;-65
2022/11/04 11:06:28;;;;;;;2.72;1.02;;;;;;;24.89;37.85;98316.28;5114840;27;20042;-58
2022/11/04 11:08:58;;;;;;;3.72;0.70;;;;;;;24.89;37.93;98317.06;5117274;28;20647;-67
2022/11/04 11:11:41;;;;;;;3.78;0.90;;;;;;;24.88;38.03;98317.50;5118580;27;20056;-59
2022/11/04 11:14:31;;;;;;;11.43;1.20;;;;;;;24.90;38.32;98326.25;5114864;28;20058;-59
2022/11/04 11:17:13;;;;;;;4.30;0.70;;;;;;;24.86;38.43;98336.69;5118163;28;20296;-58
2022/11/04 11:19:49;;;;;;;3.03;0.52;;;;;;;24.85;38.26;98344.28;5118207;28;20143;-59
2022/11/04 11:22:45;;;;;;;2.13;0.55;;;;;;;24.85;38.36;98343.50;5120841;28;20035;-70
2022/11/04 11:25:13;;;;;;;0.90;0.50;;;;;;;24.83;38.23;98334.75;5101300;28;20050;-58
2022/11/04 11:27:44;;;;;;;1.48;0.65;;;;;;;24.82;38.03;98347.97;5088463;28;20032;-69
2022/11/04 11:30:30;;;;;;;3.97;0.77;;;;;;;24.80;38.41;98360.81;5115992;28;20124;-58
2022/11/04 11:32:59;;;;;;;6.57;0.88;;;;;;;24.78;38.31;98366.00;5118492;28;20051;-70
2022/11/04 11:35:31;;;;;;;0.90;0.60;;;;;;;24.79;38.25;98381.56;5116334;28;20043;-69
2022/11/04 11:37:59;;;;;;;3.72;0.55;;;;;;;24.81;38.23;98379.16;5118518;28;20047;-69
2022/11/04 11:40:30;;;;;;;2.45;0.63;;;;;;;24.78;38.24;98378.00;5118638;28;20096;-68
2022/11/04 11:43:01;;;;;;;1.70;0.60;;;;;;;24.79;38.28;98384.38;5117878;28;20128;-58
2022/11/04 11:45:29;;;;;;;1.23;0.60;;;;;;;24.77;38.49;98400.78;5117920;28;20503;-69
2022/11/04 11:47:55;;;;;;;0.85;0.57;;;;;;;24.77;38.12;98390.41;5115603;28;20510;-58
2022/11/04 11:50:33;;;;;;;1.23;0.47;;;;;;;24.79;38.36;98392.75;5119345;28;20046;-58
2022/11/04 11:53:20;;;;;;;1.13;0.50;;;;;;;24.76;38.23;98388.81;5119318;28;20100;-69
2022/11/04 11:55:58;;;;;;;1.00;0.40;;;;;;;24.77;38.15;98395.19;5118006;28;20031;-70
2022/11/04 11:59:08;;;;;;;2.10;0.70;;;;;;;24.78;38.04;98396.78;5094885;28;20044;-69
2022/11/04 12:01:39;;;;;;;1.35;0.60;;;;;;;24.78;38.26;98396.78;5038663;28;20119;-58
2022/11/04 12:04:05;;;;;;;1.25;0.60;;;;;;;24.77;37.91;98392.41;5041025;28;20045;-58
2022/11/04 12:06:41;;;;;;;1.17;0.60;;;;;;;24.77;37.92;98395.19;5040940;28;20053;-59
2022/11/04 12:09:25;;;;;;;2.28;0.60;;;;;;;24.76;37.77;98400.00;5041726;28;20053;-70
2022/11/04 12:11:58;;;;;;;1.52;0.47;;;;;;;24.72;38.15;98393.69;5038786;28;20046;-69
2022/11/04 12:14:30;;;;;;;;;;;;;;;24.77;37.73;98407.19;5044092;28;20098;-69
2022/11/04 12:17:21;;;;;;;1.08;0.40;;;;;;;24.76;37.64;98408.41;5044165;28;19928;-70
2022/11/04 12:20:02;;;;;;;1.55;0.45;;;;;;;24.74;37.73;98408.03;5038889;28;20044;-69